sensor_id;sensor_type;location;lat;lon;timestamp;temperature;humidity
43015;DHT22;28637;50.554;7.032;2023-03-14T00:02:57;10.80;99.90
43015;DHT22;28637;50.554;7.032;2023-03-14T00:07:57;10.80;99.90
43015;DHT22;28637;50.554;7.032;2023-03-14T00:12:58;10.80;99.90
43015;DHT22;28637;50.554;7.032;2023-03-14T00:17:59;10.80;99.90
43015;DHT22;28637;50.554;7.032;2023-03-14T00:22:59;10.80;99.90
43015;DHT22;28637;50.554;7.032;2023-03-14T00:28:00;10.80;99.90
43015;DHT22;28637;50.554;7.032;2023-03-14T00:33:01;10.70;99.90
43015;DHT22;28637;50.554;7.032;2023-03-14T00:38:19;10.60;99.90
43015;DHT22;28637;50.554;7.032;2023-03-14T00:43:20;10.50;99.90
43015;DHT22;28637;50.554;7.032;2023-03-14T00:48:24;10.40;99.90
43015;DHT22;28637;50.554;7.032;2023-03-14T00:53:25;10.30;99.90
43015;DHT22;28637;50.554;7.032;2023-03-14T00:58:26;10.20;99.90
43015;DHT22;28637;50.554;7.032;2023-03-14T01:03:26;10.30;99.90
43015;DHT22;28637;50.554;7.032;2023-03-14T01:08:27;10.30;99.90
43015;DHT22;28637;50.554;7.032;2023-03-14T01:13:27;10.30;99.90
43015;DHT22;28637;50.554;7.032;2023-03-14T01:18:28;10.30;99.90
43015;DHT22;28637;50.554;7.032;2023-03-14T01:23:29;10.30;99.90
43015;DHT22;28637;50.554;7.032;2023-03-14T01:28:29;10.40;99.90
43015;DHT22;28637;50.554;7.032;2023-03-14T01:33:30;10.40;99.90
43015;DHT22;28637;50.554;7.032;2023-03-14T01:38:35;10.40;99.90
43015;DHT22;28637;50.554;7.032;2023-03-14T01:43:36;10.40;99.90
43015;DHT22;28637;50.554;7.032;2023-03-14T01:53:48;10.40;99.90
43015;DHT22;28637;50.554;7.032;2023-03-14T01:58:51;10.30;99.90
43015;DHT22;28637;50.554;7.032;2023-03-14T02:03:55;10.40;99.90
43015;DHT22;28637;50.554;7.032;2023-03-14T02:08:56;10.40;99.90
43015;DHT22;28637;50.554;7.032;2023-03-14T02:13:58;10.30;99.90
43015;DHT22;28637;50.554;7.032;2023-03-14T02:18:59;10.30;99.90
43015;DHT22;28637;50.554;7.032;2023-03-14T02:24:06;10.30;99.90
43015;DHT22;28637;50.554;7.032;2023-03-14T02:29:09;10.30;99.90
43015;DHT22;28637;50.554;7.032;2023-03-14T02:34:10;10.30;99.90
43015;DHT22;28637;50.554;7.032;2023-03-14T02:39:20;10.20;99.90
43015;DHT22;28637;50.554;7.032;2023-03-14T02:44:22;10.10;99.90
43015;DHT22;28637;50.554;7.032;2023-03-14T02:49:23;10.00;99.90
43015;DHT22;28637;50.554;7.032;2023-03-14T02:54:25;10.00;99.90
43015;DHT22;28637;50.554;7.032;2023-03-14T02:59:26;9.90;99.90
43015;DHT22;28637;50.554;7.032;2023-03-14T03:04:26;9.70;99.90
43015;DHT22;28637;50.554;7.032;2023-03-14T03:09:27;9.80;99.90
43015;DHT22;28637;50.554;7.032;2023-03-14T03:14:27;9.70;99.90
43015;DHT22;28637;50.554;7.032;2023-03-14T03:19:28;9.70;99.90
43015;DHT22;28637;50.554;7.032;2023-03-14T03:24:29;9.60;99.90
43015;DHT22;28637;50.554;7.032;2023-03-14T03:29:30;9.60;99.90
43015;DHT22;28637;50.554;7.032;2023-03-14T03:34:30;9.70;99.90
43015;DHT22;28637;50.554;7.032;2023-03-14T03:39:31;9.70;99.90
43015;DHT22;28637;50.554;7.032;2023-03-14T03:44:32;9.70;99.90
43015;DHT22;28637;50.554;7.032;2023-03-14T03:49:33;9.70;99.90
43015;DHT22;28637;50.554;7.032;2023-03-14T03:54:34;9.70;99.90
43015;DHT22;28637;50.554;7.032;2023-03-14T03:59:35;9.60;99.90
43015;DHT22;28637;50.554;7.032;2023-03-14T04:04:35;9.60;99.90
43015;DHT22;28637;50.554;7.032;2023-03-14T04:09:37;9.60;99.90
43015;DHT22;28637;50.554;7.032;2023-03-14T04:14:38;9.60;99.90
43015;DHT22;28637;50.554;7.032;2023-03-14T04:19:39;9.70;99.90
43015;DHT22;28637;50.554;7.032;2023-03-14T04:24:39;9.70;99.90
43015;DHT22;28637;50.554;7.032;2023-03-14T04:29:41;9.70;99.90
43015;DHT22;28637;50.554;7.032;2023-03-14T04:34:41;9.70;99.90
43015;DHT22;28637;50.554;7.032;2023-03-14T04:39:42;9.70;99.90
43015;DHT22;28637;50.554;7.032;2023-03-14T04:44:43;9.60;99.90
43015;DHT22;28637;50.554;7.032;2023-03-14T04:49:43;9.60;99.90
43015;DHT22;28637;50.554;7.032;2023-03-14T04:54:44;9.50;99.90
43015;DHT22;28637;50.554;7.032;2023-03-14T04:59:45;9.30;99.90
43015;DHT22;28637;50.554;7.032;2023-03-14T05:04:45;9.20;99.90
43015;DHT22;28637;50.554;7.032;2023-03-14T05:09:46;9.10;99.90
43015;DHT22;28637;50.554;7.032;2023-03-14T05:14:46;9.00;99.90
43015;DHT22;28637;50.554;7.032;2023-03-14T05:19:47;8.90;99.90
43015;DHT22;28637;50.554;7.032;2023-03-14T05:24:48;8.80;99.90
43015;DHT22;28637;50.554;7.032;2023-03-14T05:29:48;8.80;99.90
43015;DHT22;28637;50.554;7.032;2023-03-14T05:34:49;8.80;99.90
43015;DHT22;28637;50.554;7.032;2023-03-14T05:39:50;8.80;99.90
43015;DHT22;28637;50.554;7.032;2023-03-14T05:44:50;8.70;99.90
43015;DHT22;28637;50.554;7.032;2023-03-14T05:49:51;8.70;99.90
43015;DHT22;28637;50.554;7.032;2023-03-14T05:54:52;8.70;99.90
43015;DHT22;28637;50.554;7.032;2023-03-14T05:59:52;8.70;99.90
43015;DHT22;28637;50.554;7.032;2023-03-14T06:04:53;8.80;99.90
43015;DHT22;28637;50.554;7.032;2023-03-14T06:09:53;8.70;99.90
43015;DHT22;28637;50.554;7.032;2023-03-14T06:14:54;8.70;99.90
43015;DHT22;28637;50.554;7.032;2023-03-14T06:19:55;8.70;99.90
43015;DHT22;28637;50.554;7.032;2023-03-14T06:24:55;8.60;99.90
43015;DHT22;28637;50.554;7.032;2023-03-14T06:29:56;8.60;99.90
43015;DHT22;28637;50.554;7.032;2023-03-14T06:34:57;8.70;99.90
43015;DHT22;28637;50.554;7.032;2023-03-14T06:40:01;8.70;99.90
43015;DHT22;28637;50.554;7.032;2023-03-14T06:45:02;8.70;99.90
43015;DHT22;28637;50.554;7.032;2023-03-14T06:50:04;8.80;99.90
43015;DHT22;28637;50.554;7.032;2023-03-14T06:55:05;8.90;99.90
43015;DHT22;28637;50.554;7.032;2023-03-14T07:00:06;9.10;99.90
43015;DHT22;28637;50.554;7.032;2023-03-14T07:05:07;9.10;99.90
43015;DHT22;28637;50.554;7.032;2023-03-14T07:10:10;9.30;99.90
43015;DHT22;28637;50.554;7.032;2023-03-14T07:15:11;9.40;99.90
43015;DHT22;28637;50.554;7.032;2023-03-14T07:20:12;9.40;99.90
43015;DHT22;28637;50.554;7.032;2023-03-14T07:25:12;9.50;99.90
43015;DHT22;28637;50.554;7.032;2023-03-14T07:30:14;9.40;99.90
43015;DHT22;28637;50.554;7.032;2023-03-14T07:35:14;9.40;99.90
43015;DHT22;28637;50.554;7.032;2023-03-14T07:40:15;9.40;99.90
43015;DHT22;28637;50.554;7.032;2023-03-14T07:45:16;9.50;99.90
43015;DHT22;28637;50.554;7.032;2023-03-14T07:50:17;9.70;99.90
43015;DHT22;28637;50.554;7.032;2023-03-14T07:55:18;9.90;99.90
43015;DHT22;28637;50.554;7.032;2023-03-14T08:00:18;10.00;99.90
43015;DHT22;28637;50.554;7.032;2023-03-14T08:05:22;10.20;99.90
43015;DHT22;28637;50.554;7.032;2023-03-14T08:10:22;10.20;99.90
43015;DHT22;28637;50.554;7.032;2023-03-14T08:15:24;10.30;99.90
43015;DHT22;28637;50.554;7.032;2023-03-14T08:20:27;10.40;99.90
43015;DHT22;28637;50.554;7.032;2023-03-14T08:25:28;10.50;99.90
43015;DHT22;28637;50.554;7.032;2023-03-14T08:30:29;10.70;99.90
43015;DHT22;28637;50.554;7.032;2023-03-14T08:35:30;10.70;99.90
43015;DHT22;28637;50.554;7.032;2023-03-14T08:40:30;10.70;99.90
43015;DHT22;28637;50.554;7.032;2023-03-14T08:45:31;10.70;99.90
43015;DHT22;28637;50.554;7.032;2023-03-14T08:50:32;10.70;99.90
43015;DHT22;28637;50.554;7.032;2023-03-14T08:55:33;10.80;99.90
43015;DHT22;28637;50.554;7.032;2023-03-14T09:00:34;10.80;99.90
43015;DHT22;28637;50.554;7.032;2023-03-14T09:05:34;10.70;99.90
43015;DHT22;28637;50.554;7.032;2023-03-14T09:10:36;10.70;99.90
43015;DHT22;28637;50.554;7.032;2023-03-14T09:15:36;10.80;99.90
43015;DHT22;28637;50.554;7.032;2023-03-14T09:20:37;11.00;99.90
43015;DHT22;28637;50.554;7.032;2023-03-14T09:25:38;11.00;99.90
43015;DHT22;28637;50.554;7.032;2023-03-14T09:30:39;11.10;99.90
43015;DHT22;28637;50.554;7.032;2023-03-14T09:35:39;11.10;99.90
43015;DHT22;28637;50.554;7.032;2023-03-14T09:40:40;11.10;99.90
43015;DHT22;28637;50.554;7.032;2023-03-14T09:45:41;10.80;99.90
43015;DHT22;28637;50.554;7.032;2023-03-14T09:50:49;10.60;99.90
43015;DHT22;28637;50.554;7.032;2023-03-14T09:55:50;10.50;99.90
43015;DHT22;28637;50.554;7.032;2023-03-14T10:00:54;10.50;99.90
43015;DHT22;28637;50.554;7.032;2023-03-14T10:05:56;10.50;99.90
43015;DHT22;28637;50.554;7.032;2023-03-14T10:10:57;10.10;99.90
43015;DHT22;28637;50.554;7.032;2023-03-14T10:16:03;9.70;99.90
43015;DHT22;28637;50.554;7.032;2023-03-14T10:21:17;9.40;99.90
43015;DHT22;28637;50.554;7.032;2023-03-14T10:26:24;9.10;99.90
43015;DHT22;28637;50.554;7.032;2023-03-14T10:31:26;8.90;99.90
43015;DHT22;28637;50.554;7.032;2023-03-14T10:36:30;8.70;99.90
43015;DHT22;28637;50.554;7.032;2023-03-14T10:41:32;8.60;99.90
43015;DHT22;28637;50.554;7.032;2023-03-14T10:46:33;8.50;99.90
43015;DHT22;28637;50.554;7.032;2023-03-14T10:51:34;8.20;99.90
43015;DHT22;28637;50.554;7.032;2023-03-14T10:56:36;8.00;99.90
43015;DHT22;28637;50.554;7.032;2023-03-14T11:07:33;7.90;99.90
43015;DHT22;28637;50.554;7.032;2023-03-14T11:28:42;8.90;99.90
43015;DHT22;28637;50.554;7.032;2023-03-14T11:33:56;9.10;99.90
43015;DHT22;28637;50.554;7.032;2023-03-14T11:38:58;9.30;99.90
43015;DHT22;28637;50.554;7.032;2023-03-14T11:44:03;9.20;99.90
43015;DHT22;28637;50.554;7.032;2023-03-14T11:49:26;9.00;99.90
43015;DHT22;28637;50.554;7.032;2023-03-14T11:55:27;8.90;99.90
43015;DHT22;28637;50.554;7.032;2023-03-14T12:00:23;8.80;99.90
43015;DHT22;28637;50.554;7.032;2023-03-14T12:05:40;8.40;99.90
43015;DHT22;28637;50.554;7.032;2023-03-14T12:10:51;8.20;99.90
43015;DHT22;28637;50.554;7.032;2023-03-14T12:15:58;8.10;99.90
43015;DHT22;28637;50.554;7.032;2023-03-14T12:21:05;8.20;99.90
43015;DHT22;28637;50.554;7.032;2023-03-14T12:42:05;8.80;99.90
43015;DHT22;28637;50.554;7.032;2023-03-14T12:58:32;7.30;99.90
43015;DHT22;28637;50.554;7.032;2023-03-14T13:08:54;6.60;99.90
43015;DHT22;28637;50.554;7.032;2023-03-14T13:13:57;6.40;99.90
43015;DHT22;28637;50.554;7.032;2023-03-14T13:19:18;6.20;99.90
43015;DHT22;28637;50.554;7.032;2023-03-14T13:24:25;6.10;99.90
43015;DHT22;28637;50.554;7.032;2023-03-14T13:29:30;6.20;99.90
43015;DHT22;28637;50.554;7.032;2023-03-14T13:34:33;6.20;99.90
43015;DHT22;28637;50.554;7.032;2023-03-14T13:39:34;6.40;99.90
43015;DHT22;28637;50.554;7.032;2023-03-14T13:44:38;6.40;99.90
43015;DHT22;28637;50.554;7.032;2023-03-14T13:49:39;6.60;99.90
43015;DHT22;28637;50.554;7.032;2023-03-14T13:54:40;6.70;99.90
43015;DHT22;28637;50.554;7.032;2023-03-14T13:59:40;6.50;99.90
43015;DHT22;28637;50.554;7.032;2023-03-14T14:04:41;6.50;99.90
43015;DHT22;28637;50.554;7.032;2023-03-14T14:09:49;6.50;99.90
43015;DHT22;28637;50.554;7.032;2023-03-14T14:14:58;6.60;99.90
43015;DHT22;28637;50.554;7.032;2023-03-14T14:20:03;6.50;99.90
43015;DHT22;28637;50.554;7.032;2023-03-14T14:25:06;6.40;99.90
43015;DHT22;28637;50.554;7.032;2023-03-14T14:30:27;6.30;99.90
43015;DHT22;28637;50.554;7.032;2023-03-14T14:35:33;6.20;99.90
43015;DHT22;28637;50.554;7.032;2023-03-14T14:40:34;6.10;99.90
43015;DHT22;28637;50.554;7.032;2023-03-14T14:45:43;5.90;99.90
43015;DHT22;28637;50.554;7.032;2023-03-14T14:50:54;5.90;99.90
43015;DHT22;28637;50.554;7.032;2023-03-14T14:55:58;5.90;99.90
43015;DHT22;28637;50.554;7.032;2023-03-14T15:01:25;5.30;99.90
43015;DHT22;28637;50.554;7.032;2023-03-14T15:06:28;5.00;99.90
43015;DHT22;28637;50.554;7.032;2023-03-14T15:11:29;4.80;99.90
43015;DHT22;28637;50.554;7.032;2023-03-14T15:16:31;4.70;99.90
43015;DHT22;28637;50.554;7.032;2023-03-14T15:21:32;4.30;99.90
43015;DHT22;28637;50.554;7.032;2023-03-14T15:26:33;4.30;99.90
43015;DHT22;28637;50.554;7.032;2023-03-14T15:31:35;4.10;99.90
43015;DHT22;28637;50.554;7.032;2023-03-14T15:36:37;3.80;99.90
43015;DHT22;28637;50.554;7.032;2023-03-14T15:41:38;3.70;99.90
43015;DHT22;28637;50.554;7.032;2023-03-14T15:46:38;3.70;99.90
43015;DHT22;28637;50.554;7.032;2023-03-14T15:51:39;3.90;99.90
43015;DHT22;28637;50.554;7.032;2023-03-14T15:56:40;4.00;99.90
43015;DHT22;28637;50.554;7.032;2023-03-14T16:01:42;4.10;99.90
43015;DHT22;28637;50.554;7.032;2023-03-14T16:06:43;3.70;99.90
43015;DHT22;28637;50.554;7.032;2023-03-14T16:11:44;3.70;99.90
43015;DHT22;28637;50.554;7.032;2023-03-14T16:16:48;3.70;99.90
43015;DHT22;28637;50.554;7.032;2023-03-14T16:21:52;3.60;99.90
43015;DHT22;28637;50.554;7.032;2023-03-14T16:26:53;3.70;99.90
43015;DHT22;28637;50.554;7.032;2023-03-14T16:31:54;4.20;99.90
43015;DHT22;28637;50.554;7.032;2023-03-14T16:36:55;4.40;99.90
43015;DHT22;28637;50.554;7.032;2023-03-14T16:41:55;4.30;99.90
43015;DHT22;28637;50.554;7.032;2023-03-14T16:46:56;4.20;99.90
43015;DHT22;28637;50.554;7.032;2023-03-14T16:51:57;4.30;99.90
43015;DHT22;28637;50.554;7.032;2023-03-14T16:56:58;4.20;99.90
43015;DHT22;28637;50.554;7.032;2023-03-14T17:01:59;4.40;99.90
43015;DHT22;28637;50.554;7.032;2023-03-14T17:06:59;4.60;99.90
43015;DHT22;28637;50.554;7.032;2023-03-14T17:12:00;4.70;99.90
43015;DHT22;28637;50.554;7.032;2023-03-14T17:17:01;4.90;99.90
43015;DHT22;28637;50.554;7.032;2023-03-14T17:22:01;4.90;99.90
43015;DHT22;28637;50.554;7.032;2023-03-14T17:27:02;4.80;99.90
43015;DHT22;28637;50.554;7.032;2023-03-14T17:32:03;5.00;99.90
43015;DHT22;28637;50.554;7.032;2023-03-14T17:37:04;4.90;99.90
43015;DHT22;28637;50.554;7.032;2023-03-14T17:42:05;4.80;99.90
43015;DHT22;28637;50.554;7.032;2023-03-14T17:47:06;4.60;99.90
43015;DHT22;28637;50.554;7.032;2023-03-14T17:52:07;4.30;99.90
43015;DHT22;28637;50.554;7.032;2023-03-14T17:57:12;4.50;99.90
43015;DHT22;28637;50.554;7.032;2023-03-14T18:02:12;4.40;99.90
43015;DHT22;28637;50.554;7.032;2023-03-14T18:07:13;4.40;99.90
43015;DHT22;28637;50.554;7.032;2023-03-14T18:12:14;4.30;99.90
43015;DHT22;28637;50.554;7.032;2023-03-14T18:17:15;4.20;99.90
43015;DHT22;28637;50.554;7.032;2023-03-14T18:22:15;4.00;99.90
43015;DHT22;28637;50.554;7.032;2023-03-14T18:27:16;3.80;99.90
43015;DHT22;28637;50.554;7.032;2023-03-14T18:32:17;3.80;99.90
43015;DHT22;28637;50.554;7.032;2023-03-14T18:37:17;3.90;99.90
43015;DHT22;28637;50.554;7.032;2023-03-14T18:42:18;3.90;99.90
43015;DHT22;28637;50.554;7.032;2023-03-14T18:47:19;3.90;99.90
43015;DHT22;28637;50.554;7.032;2023-03-14T18:52:24;4.00;99.90
43015;DHT22;28637;50.554;7.032;2023-03-14T18:57:26;4.00;99.90
43015;DHT22;28637;50.554;7.032;2023-03-14T19:02:27;4.00;99.90
43015;DHT22;28637;50.554;7.032;2023-03-14T19:07:27;4.10;99.90
43015;DHT22;28637;50.554;7.032;2023-03-14T19:12:28;4.20;99.90
43015;DHT22;28637;50.554;7.032;2023-03-14T19:17:29;4.30;99.90
43015;DHT22;28637;50.554;7.032;2023-03-14T19:22:29;4.30;99.90
43015;DHT22;28637;50.554;7.032;2023-03-14T19:27:31;4.30;99.90
43015;DHT22;28637;50.554;7.032;2023-03-14T19:32:32;4.40;99.90
43015;DHT22;28637;50.554;7.032;2023-03-14T19:37:33;4.50;99.90
43015;DHT22;28637;50.554;7.032;2023-03-14T19:42:33;4.50;99.90
43015;DHT22;28637;50.554;7.032;2023-03-14T19:47:34;4.50;99.90
43015;DHT22;28637;50.554;7.032;2023-03-14T19:52:35;4.60;99.90
43015;DHT22;28637;50.554;7.032;2023-03-14T19:57:38;4.50;99.90
43015;DHT22;28637;50.554;7.032;2023-03-14T20:02:39;4.40;99.90
43015;DHT22;28637;50.554;7.032;2023-03-14T20:07:41;4.40;99.90
43015;DHT22;28637;50.554;7.032;2023-03-14T20:12:45;4.40;99.90
43015;DHT22;28637;50.554;7.032;2023-03-14T20:17:46;4.50;99.90
43015;DHT22;28637;50.554;7.032;2023-03-14T20:22:47;4.40;99.90
43015;DHT22;28637;50.554;7.032;2023-03-14T20:27:49;4.40;99.90
43015;DHT22;28637;50.554;7.032;2023-03-14T20:32:53;4.40;99.90
43015;DHT22;28637;50.554;7.032;2023-03-14T20:37:54;4.20;99.90
43015;DHT22;28637;50.554;7.032;2023-03-14T20:42:57;4.20;99.90
43015;DHT22;28637;50.554;7.032;2023-03-14T20:47:59;4.00;99.90
43015;DHT22;28637;50.554;7.032;2023-03-14T20:53:00;3.80;99.90
43015;DHT22;28637;50.554;7.032;2023-03-14T20:58:02;3.60;99.90
43015;DHT22;28637;50.554;7.032;2023-03-14T21:03:02;3.50;99.90
43015;DHT22;28637;50.554;7.032;2023-03-14T21:08:03;3.50;99.90
43015;DHT22;28637;50.554;7.032;2023-03-14T21:13:04;3.50;99.90
43015;DHT22;28637;50.554;7.032;2023-03-14T21:18:05;3.50;99.90
43015;DHT22;28637;50.554;7.032;2023-03-14T21:23:06;3.40;99.90
43015;DHT22;28637;50.554;7.032;2023-03-14T21:28:07;3.20;99.90
43015;DHT22;28637;50.554;7.032;2023-03-14T21:33:07;3.10;99.90
43015;DHT22;28637;50.554;7.032;2023-03-14T21:38:08;3.00;99.90
43015;DHT22;28637;50.554;7.032;2023-03-14T21:43:09;2.90;99.90
43015;DHT22;28637;50.554;7.032;2023-03-14T21:48:09;2.90;99.90
43015;DHT22;28637;50.554;7.032;2023-03-14T21:53:10;2.80;99.90
43015;DHT22;28637;50.554;7.032;2023-03-14T21:58:11;2.80;99.90
43015;DHT22;28637;50.554;7.032;2023-03-14T22:03:19;2.80;99.90
43015;DHT22;28637;50.554;7.032;2023-03-14T22:08:19;2.60;99.90
43015;DHT22;28637;50.554;7.032;2023-03-14T22:13:23;2.50;99.90
43015;DHT22;28637;50.554;7.032;2023-03-14T22:18:25;2.40;99.90
43015;DHT22;28637;50.554;7.032;2023-03-14T22:23:25;2.30;99.90
43015;DHT22;28637;50.554;7.032;2023-03-14T22:28:26;2.10;99.90
43015;DHT22;28637;50.554;7.032;2023-03-14T22:33:27;2.00;99.90
43015;DHT22;28637;50.554;7.032;2023-03-14T22:38:27;2.00;99.90
43015;DHT22;28637;50.554;7.032;2023-03-14T22:43:29;1.90;99.90
43015;DHT22;28637;50.554;7.032;2023-03-14T22:48:30;1.80;99.90
43015;DHT22;28637;50.554;7.032;2023-03-14T22:53:31;1.70;99.90
43015;DHT22;28637;50.554;7.032;2023-03-14T22:58:33;1.70;99.90
43015;DHT22;28637;50.554;7.032;2023-03-14T23:03:33;1.60;99.90
43015;DHT22;28637;50.554;7.032;2023-03-14T23:08:34;1.50;99.90
43015;DHT22;28637;50.554;7.032;2023-03-14T23:13:35;1.40;99.90
43015;DHT22;28637;50.554;7.032;2023-03-14T23:18:37;1.30;99.90
43015;DHT22;28637;50.554;7.032;2023-03-14T23:23:39;1.30;99.90
43015;DHT22;28637;50.554;7.032;2023-03-14T23:28:41;1.30;99.90
43015;DHT22;28637;50.554;7.032;2023-03-14T23:33:42;1.30;99.90
43015;DHT22;28637;50.554;7.032;2023-03-14T23:38:44;1.30;99.90
43015;DHT22;28637;50.554;7.032;2023-03-14T23:43:46;1.20;99.90
43015;DHT22;28637;50.554;7.032;2023-03-14T23:48:47;1.10;99.90
43015;DHT22;28637;50.554;7.032;2023-03-14T23:53:47;1.20;99.90
43015;DHT22;28637;50.554;7.032;2023-03-14T23:58:48;1.20;99.90
